Time;durP1;ratioP1;P1;durP2;ratioP2;P2;SDS_P1;SDS_P2;PMS_P1;PMS_P2;Temp;Humidity;BMP_temperature;BMP_pressure;BME280_temperature;BME280_humidity;BME280_pressure;Samples;Min_cycle;Max_cycle;Signal;HPM_P1;HPM_P2
2021/12/10 00:00:51;;;;;;;0.30;0.30;;;0.70;95.60;;;;;;4956586;28;20180;-70
2021/12/10 00:03:39;;;;;;;0.30;0.30;;;0.70;95.60;;;;;;4956890;28;20169;-70
2021/12/10 00:06:22;;;;;;;0.30;0.30;;;0.60;95.50;;;;;;4949503;28;20263;-70
2021/12/10 00:08:54;;;;;;;0.40;0.40;;;0.40;95.40;;;;;;4956705;28;20618;-70
2021/12/10 00:11:38;;;;;;;0.30;0.30;;;0.40;95.50;;;;;;4956396;28;20173;-71
2021/12/10 00:14:05;;;;;;;0.30;0.30;;;0.40;95.40;;;;;;4956586;28;20176;-69
2021/12/10 00:16:33;;;;;;;0.40;0.40;;;0.30;95.30;;;;;;4955497;28;20292;-70
2021/12/10 00:19:15;;;;;;;0.40;0.40;;;0.20;95.20;;;;;;4956321;28;20180;-71
2021/12/10 00:21:41;;;;;;;0.30;0.30;;;0.10;95.10;;;;;;4956550;28;20174;-70
2021/12/10 00:24:09;;;;;;;0.40;0.40;;;0.00;95.20;;;;;;4956354;28;20229;-71
2021/12/10 00:26:35;;;;;;;0.40;0.40;;;-0.10;95.40;;;;;;4956088;28;20689;-71
2021/12/10 00:29:03;;;;;;;0.40;0.40;;;-0.20;95.60;;;;;;4956539;28;20194;-70
2021/12/10 00:34:29;;;;;;;0.50;0.50;;;-0.30;95.90;;;;;;4956112;28;20248;-70
2021/12/10 00:36:59;;;;;;;0.30;0.30;;;-0.40;95.90;;;;;;4955480;29;20217;-70
2021/12/10 00:39:33;;;;;;;0.38;0.38;;;-0.40;96.00;;;;;;4955997;28;20213;-71
2021/12/10 00:42:02;;;;;;;0.50;0.50;;;-0.50;96.10;;;;;;4956011;28;20189;-70
2021/12/10 00:44:27;;;;;;;0.40;0.40;;;-0.50;96.80;;;;;;4955780;28;20173;-70
2021/12/10 00:46:53;;;;;;;0.40;0.40;;;-0.50;96.90;;;;;;4955837;28;20173;-70
2021/12/10 00:49:19;;;;;;;0.50;0.50;;;-0.50;96.80;;;;;;4955935;28;20537;-70
2021/12/10 00:51:45;;;;;;;0.40;0.40;;;-0.50;96.60;;;;;;4955961;28;20720;-71
2021/12/10 00:54:12;;;;;;;0.40;0.40;;;-0.50;96.40;;;;;;4955491;28;20200;-71
2021/12/10 00:56:41;;;;;;;0.40;0.40;;;-0.50;96.40;;;;;;4955796;28;20288;-71
2021/12/10 00:59:09;;;;;;;0.50;0.50;;;-0.50;96.40;;;;;;4955720;28;20162;-70
2021/12/10 01:01:35;;;;;;;0.40;0.40;;;-0.50;96.40;;;;;;4955798;28;20552;-71
2021/12/10 01:04:07;;;;;;;0.30;0.30;;;-0.40;96.30;;;;;;4955790;28;20178;-71
2021/12/10 01:06:32;;;;;;;0.40;0.40;;;-0.30;96.40;;;;;;4955489;28;20197;-70
2021/12/10 01:09:07;;;;;;;0.40;0.40;;;-0.30;96.20;;;;;;4955580;28;20565;-70
2021/12/10 01:11:40;;;;;;;0.30;0.30;;;-0.20;96.30;;;;;;4955740;28;20584;-71
2021/12/10 01:14:19;;;;;;;0.40;0.40;;;-0.20;96.10;;;;;;4955590;28;20177;-71
2021/12/10 01:25:09;;;;;;;0.30;0.30;;;0.30;95.70;;;;;;4955632;28;20204;-70
2021/12/10 01:27:39;;;;;;;0.40;0.40;;;0.30;95.40;;;;;;4955438;28;20166;-71
2021/12/10 01:30:26;;;;;;;0.40;0.40;;;0.40;95.20;;;;;;4955201;28;20188;-71
2021/12/10 01:32:56;;;;;;;0.30;0.30;;;0.40;95.20;;;;;;4955500;28;20184;-70
2021/12/10 01:35:27;;;;;;;0.30;0.30;;;0.50;95.00;;;;;;4955212;28;20613;-69
2021/12/10 01:37:54;;;;;;;0.30;0.30;;;0.50;94.90;;;;;;4955518;28;20174;-70
2021/12/10 01:40:24;;;;;;;0.35;0.35;;;0.60;94.90;;;;;;4955087;28;20177;-69
2021/12/10 01:42:52;;;;;;;0.30;0.30;;;0.70;94.90;;;;;;4955230;28;20186;-70
2021/12/10 01:45:23;;;;;;;0.30;0.30;;;0.70;94.80;;;;;;4954003;28;20525;-70
2021/12/10 01:47:58;;;;;;;0.35;0.35;;;0.70;95.10;;;;;;4955214;28;20161;-71
2021/12/10 01:50:25;;;;;;;0.30;0.30;;;0.80;94.90;;;;;;4955083;28;20185;-71
2021/12/10 01:53:04;;;;;;;0.30;0.30;;;0.80;94.80;;;;;;4955335;28;20177;-69
2021/12/10 01:55:31;;;;;;;0.30;0.30;;;0.80;94.80;;;;;;4954914;28;20593;-69
2021/12/10 01:57:58;;;;;;;0.30;0.30;;;0.70;94.70;;;;;;4955050;28;20173;-69
2021/12/10 02:00:30;;;;;;;0.30;0.30;;;0.70;94.70;;;;;;4954895;28;20174;-71
2021/12/10 02:02:57;;;;;;;0.40;0.40;;;1.00;95.00;;;;;;4955057;28;20178;-71
2021/12/10 02:05:23;;;;;;;0.30;0.30;;;0.80;94.90;;;;;;4955081;28;20201;-70
2021/12/10 02:07:51;;;;;;;0.30;0.30;;;0.80;94.80;;;;;;4955299;28;20186;-70
2021/12/10 02:10:19;;;;;;;0.30;0.30;;;0.80;94.70;;;;;;4954825;28;20186;-70
2021/12/10 02:12:46;;;;;;;0.40;0.40;;;0.70;94.60;;;;;;4955095;28;20208;-70
2021/12/10 02:15:13;;;;;;;0.40;0.40;;;0.70;94.80;;;;;;4955004;28;20606;-71
2021/12/10 02:17:42;;;;;;;0.30;0.30;;;0.70;94.80;;;;;;4954850;28;20223;-70
2021/12/10 02:20:22;;;;;;;0.30;0.30;;;0.70;94.70;;;;;;4954480;28;20174;-71
2021/12/10 02:22:49;;;;;;;0.30;0.30;;;0.70;94.80;;;;;;4953996;28;20162;-71
2021/12/10 02:25:18;;;;;;;0.35;0.35;;;0.60;94.50;;;;;;4954800;28;20249;-70
2021/12/10 02:27:43;;;;;;;0.30;0.30;;;0.60;94.80;;;;;;4954753;28;20182;-71
2021/12/10 02:30:12;;;;;;;0.30;0.30;;;0.50;94.80;;;;;;4954827;28;20178;-71
2021/12/10 02:32:38;;;;;;;0.30;0.30;;;0.30;94.90;;;;;;4954645;28;20169;-70
2021/12/10 02:35:06;;;;;;;0.40;0.40;;;0.10;95.20;;;;;;4953770;28;20210;-69
2021/12/10 02:37:32;;;;;;;0.30;0.30;;;0.10;95.50;;;;;;4954716;28;20288;-69
2021/12/10 02:39:58;;;;;;;0.40;0.40;;;0.10;95.70;;;;;;4956826;28;20273;-71
2021/12/10 02:42:23;;;;;;;1.33;1.33;;;0.10;95.70;;;;;;4958559;28;20581;-69
2021/12/10 02:44:49;;;;;;;0.30;0.30;;;0.10;95.60;;;;;;4957969;28;20468;-71
2021/12/10 02:47:16;;;;;;;0.40;0.40;;;0.20;96.00;;;;;;4958038;28;20170;-71
2021/12/10 02:49:42;;;;;;;0.40;0.40;;;0.30;95.50;;;;;;4957749;28;20170;-71
2021/12/10 02:52:10;;;;;;;0.30;0.30;;;0.30;95.40;;;;;;4957398;28;20313;-71
2021/12/10 02:54:37;;;;;;;0.40;0.40;;;0.30;95.40;;;;;;4956075;28;20205;-71
2021/12/10 02:57:08;;;;;;;0.30;0.30;;;0.30;95.50;;;;;;4956029;28;20201;-71
2021/12/10 02:59:34;;;;;;;0.40;0.40;;;0.30;95.50;;;;;;4956617;28;20157;-71
2021/12/10 03:02:01;;;;;;;0.40;0.40;;;0.30;95.20;;;;;;4957969;28;20525;-71
2021/12/10 03:04:27;;;;;;;0.40;0.40;;;0.20;99.20;;;;;;4957630;28;20174;-70
2021/12/10 03:06:58;;;;;;;0.40;0.40;;;0.20;95.20;;;;;;4957618;28;20260;-71
2021/12/10 03:09:26;;;;;;;0.40;0.40;;;0.20;95.10;;;;;;4957658;28;20181;-71
2021/12/10 03:11:56;;;;;;;0.40;0.40;;;0.20;95.00;;;;;;4957790;28;20178;-71
2021/12/10 03:14:26;;;;;;;0.40;0.40;;;0.00;99.90;;;;;;4957683;28;20253;-71
2021/12/10 03:16:54;;;;;;;0.30;0.30;;;0.00;95.20;;;;;;4956123;29;20693;-70
2021/12/10 03:19:20;;;;;;;0.40;0.40;;;0.00;95.30;;;;;;4957252;28;20660;-70
2021/12/10 03:21:46;;;;;;;0.40;0.40;;;0.00;95.30;;;;;;4957560;28;20217;-71
2021/12/10 03:24:15;;;;;;;0.40;0.40;;;-0.10;95.30;;;;;;4957269;28;20595;-71
2021/12/10 03:26:41;;;;;;;0.50;0.50;;;-0.10;95.50;;;;;;4957287;28;20181;-71
2021/12/10 03:29:06;;;;;;;0.30;0.30;;;-0.10;95.40;;;;;;4957267;28;20529;-70
2021/12/10 03:31:32;;;;;;;0.40;0.40;;;-0.20;95.50;;;;;;4957533;28;20240;-71
2021/12/10 03:33:58;;;;;;;0.40;0.40;;;-0.20;95.60;;;;;;4957479;28;20225;-71
2021/12/10 03:36:25;;;;;;;0.40;0.40;;;-0.20;95.40;;;;;;4956977;28;20449;-71
2021/12/10 03:38:51;;;;;;;0.30;0.30;;;-0.10;95.40;;;;;;4957130;28;20441;-71
2021/12/10 03:41:18;;;;;;;0.40;0.40;;;-0.20;95.30;;;;;;4956961;28;20188;-70
2021/12/10 03:43:46;;;;;;;0.50;0.50;;;-0.20;95.10;;;;;;4957112;28;20165;-70
2021/12/10 03:46:13;;;;;;;0.40;0.40;;;-0.30;94.90;;;;;;4956889;28;20201;-70
2021/12/10 03:48:42;;;;;;;0.38;0.38;;;-0.30;95.10;;;;;;4956877;28;20185;-70
2021/12/10 03:51:11;;;;;;;0.40;0.40;;;-0.20;95.30;;;;;;4955637;28;20169;-71
2021/12/10 03:53:37;;;;;;;0.40;0.40;;;-0.30;95.20;;;;;;4957185;28;20170;-71
2021/12/10 03:56:07;;;;;;;0.30;0.30;;;-0.30;95.20;;;;;;4956518;28;20581;-71
2021/12/10 03:58:33;;;;;;;0.40;0.40;;;-0.30;95.10;;;;;;4956933;28;20589;-71
2021/12/10 04:01:00;;;;;;;0.40;0.40;;;-0.30;95.10;;;;;;4956702;28;20180;-71
2021/12/10 04:03:33;;;;;;;0.40;0.40;;;-0.30;95.20;;;;;;4956772;28;20245;-71
2021/12/10 04:05:58;;;;;;;0.30;0.30;;;-0.20;95.20;;;;;;4956751;28;20212;-71
2021/12/10 04:08:24;;;;;;;0.40;0.40;;;-0.20;95.10;;;;;;4956855;28;20177;-71
2021/12/10 04:10:52;;;;;;;0.30;0.30;;;-0.20;95.20;;;;;;4956457;28;20409;-71
2021/12/10 04:13:18;;;;;;;0.30;0.30;;;-0.10;95.30;;;;;;4956573;28;20170;-71
2021/12/10 04:15:45;;;;;;;0.40;0.40;;;-0.10;95.30;;;;;;4956295;28;20536;-71
2021/12/10 04:18:11;;;;;;;0.30;0.30;;;-0.10;95.20;;;;;;4956314;28;20413;-71
2021/12/10 04:20:38;;;;;;;0.30;0.30;;;-0.10;95.40;;;;;;4956206;28;20191;-70
2021/12/10 04:23:08;;;;;;;0.30;0.30;;;-0.10;95.10;;;;;;4956297;28;20174;-70
2021/12/10 04:25:34;;;;;;;0.40;0.40;;;-0.10;95.10;;;;;;4956349;28;20205;-71
2021/12/10 04:28:03;;;;;;;0.40;0.40;;;-0.10;95.00;;;;;;4956176;28;20173;-70
2021/12/10 04:30:35;;;;;;;0.40;0.40;;;0.00;95.00;;;;;;4955908;28;20699;-70
2021/12/10 04:33:03;;;;;;;0.30;0.30;;;0.00;94.80;;;;;;4956338;28;20244;-71
2021/12/10 04:35:29;;;;;;;0.40;0.40;;;-0.10;94.80;;;;;;4955970;28;20193;-71
2021/12/10 04:37:54;;;;;;;0.30;0.30;;;0.00;94.90;;;;;;4954813;29;20707;-71
2021/12/10 04:40:22;;;;;;;0.30;0.30;;;0.00;95.10;;;;;;4955839;28;20413;-70
2021/12/10 04:42:49;;;;;;;0.30;0.30;;;0.00;95.20;;;;;;4956052;28;20161;-71
2021/12/10 04:45:16;;;;;;;0.30;0.30;;;0.00;95.30;;;;;;4955912;28;20199;-71
2021/12/10 04:47:42;;;;;;;0.30;0.30;;;0.10;95.30;;;;;;4956089;28;20173;-71
2021/12/10 04:50:10;;;;;;;0.30;0.30;;;0.10;95.10;;;;;;4955864;28;20185;-71
2021/12/10 04:52:36;;;;;;;0.30;0.30;;;0.10;95.10;;;;;;4955822;28;20605;-71
2021/12/10 04:55:06;;;;;;;0.40;0.40;;;0.10;95.00;;;;;;4955576;28;20236;-71
2021/12/10 04:57:32;;;;;;;0.40;0.40;;;0.20;94.90;;;;;;4955594;28;20189;-70
2021/12/10 04:59:57;;;;;;;0.40;0.40;;;0.20;94.90;;;;;;4955722;28;20176;-71
2021/12/10 05:02:24;;;;;;;0.30;0.30;;;0.20;94.80;;;;;;4955398;28;20309;-70
2021/12/10 05:04:50;;;;;;;0.40;0.40;;;0.20;94.70;;;;;;4955540;28;20308;-71
2021/12/10 05:07:18;;;;;;;0.40;0.40;;;0.20;94.60;;;;;;4955687;28;20604;-70
2021/12/10 05:09:43;;;;;;;0.30;0.30;;;0.20;94.60;;;;;;4955585;28;20405;-71
2021/12/10 05:12:10;;;;;;;0.30;0.30;;;0.20;94.60;;;;;;4955603;28;20189;-71
2021/12/10 05:14:36;;;;;;;0.30;0.30;;;0.20;94.70;;;;;;4955585;28;20987;-70
2021/12/10 05:17:06;;;;;;;0.40;0.40;;;0.30;94.70;;;;;;4955392;28;20677;-71
2021/12/10 05:19:34;;;;;;;0.40;0.40;;;0.40;94.80;;;;;;4955464;28;20587;-71
2021/12/10 05:22:01;;;;;;;0.40;0.40;;;0.20;94.80;;;;;;4955539;28;20629;-71
2021/12/10 05:24:29;;;;;;;0.30;0.30;;;0.30;99.90;;;;;;4955467;28;20569;-71
2021/12/10 05:26:56;;;;;;;0.43;0.43;;;0.20;94.80;;;;;;4955390;28;20272;-71
2021/12/10 05:29:22;;;;;;;0.45;0.45;;;0.20;94.90;;;;;;4955185;28;20170;-71
2021/12/10 05:31:49;;;;;;;0.40;0.40;;;0.20;95.00;;;;;;4955457;28;20185;-71
2021/12/10 05:34:15;;;;;;;0.30;0.30;;;0.00;99.90;;;;;;4955382;28;20397;-71
2021/12/10 05:36:41;;;;;;;0.40;0.40;;;0.00;96.00;;;;;;4955234;28;20205;-71
2021/12/10 05:39:08;;;;;;;0.40;0.40;;;0.10;96.30;;;;;;4955263;28;20185;-71
2021/12/10 05:41:34;;;;;;;0.30;0.30;;;0.00;96.50;;;;;;4955621;28;20173;-71
2021/12/10 05:44:00;;;;;;;0.30;0.30;;;0.10;96.40;;;;;;4953931;29;20324;-70
2021/12/10 05:46:26;;;;;;;0.40;0.40;;;0.10;96.40;;;;;;4955147;28;20202;-70
2021/12/10 05:48:53;;;;;;;0.40;0.40;;;0.20;96.40;;;;;;4955315;28;20413;-71
2021/12/10 05:51:19;;;;;;;0.40;0.40;;;0.20;96.40;;;;;;4955146;28;20193;-70
2021/12/10 05:53:45;;;;;;;0.38;0.38;;;0.30;96.40;;;;;;4955560;29;20197;-71
2021/12/10 05:56:11;;;;;;;0.30;0.30;;;0.50;95.90;;;;;;4954855;28;20225;-71
2021/12/10 05:58:37;;;;;;;0.30;0.30;;;0.50;95.70;;;;;;4955098;28;20534;-71
2021/12/10 06:01:08;;;;;;;0.30;0.30;;;0.50;95.70;;;;;;4955087;28;20401;-71
2021/12/10 06:03:37;;;;;;;0.40;0.40;;;0.60;95.80;;;;;;4955209;28;20174;-70
2021/12/10 06:06:04;;;;;;;0.40;0.40;;;0.70;95.90;;;;;;4955134;28;20201;-71
2021/12/10 06:08:30;;;;;;;0.40;0.40;;;0.70;95.90;;;;;;4954938;28;20228;-71
2021/12/10 06:10:58;;;;;;;0.30;0.30;;;0.80;95.80;;;;;;4954761;28;20174;-71
2021/12/10 06:13:24;;;;;;;0.40;0.40;;;0.80;95.90;;;;;;4955024;28;20177;-71
2021/12/10 06:15:50;;;;;;;0.40;0.40;;;0.80;96.00;;;;;;4958438;28;20197;-70
2021/12/10 06:18:16;;;;;;;0.30;0.30;;;0.60;96.40;;;;;;4958784;28;20234;-71
2021/12/10 06:20:45;;;;;;;0.40;0.40;;;0.70;96.60;;;;;;4958342;28;20416;-71
2021/12/10 06:23:11;;;;;;;1.58;1.48;;;0.70;96.50;;;;;;4958391;28;20421;-71
2021/12/10 06:25:38;;;;;;;0.40;0.40;;;0.70;96.40;;;;;;4958464;28;20292;-71
2021/12/10 06:28:05;;;;;;;0.38;0.38;;;0.90;96.40;;;;;;4958429;28;20174;-71
2021/12/10 06:30:35;;;;;;;0.32;0.32;;;1.00;96.30;;;;;;4958382;28;20188;-70
2021/12/10 06:33:03;;;;;;;0.30;0.30;;;1.20;96.10;;;;;;4958837;28;20221;-71
2021/12/10 06:35:30;;;;;;;0.30;0.30;;;1.20;95.80;;;;;;4958359;28;20214;-71
2021/12/10 06:37:57;;;;;;;0.40;0.40;;;1.30;95.80;;;;;;4958142;28;20193;-71
2021/12/10 06:40:25;;;;;;;0.30;0.30;;;1.30;95.90;;;;;;4958006;28;20178;-71
2021/12/10 06:42:51;;;;;;;0.40;0.40;;;1.40;95.70;;;;;;4958203;28;20581;-71
2021/12/10 06:45:22;;;;;;;0.32;0.32;;;1.30;95.60;;;;;;4958002;28;20198;-70
2021/12/10 06:47:50;;;;;;;0.30;0.30;;;1.30;95.60;;;;;;4958043;28;20193;-71
2021/12/10 06:50:21;;;;;;;0.30;0.30;;;1.40;95.60;;;;;;4957833;28;20212;-70
2021/12/10 06:52:47;;;;;;;0.30;0.30;;;1.30;95.50;;;;;;4958143;28;20185;-71
2021/12/10 06:55:14;;;;;;;0.38;0.38;;;1.40;95.50;;;;;;4957782;28;20213;-71
2021/12/10 06:57:39;;;;;;;0.30;0.30;;;1.50;95.50;;;;;;4957879;28;20564;-70
2021/12/10 07:00:10;;;;;;;0.30;0.30;;;1.60;95.60;;;;;;4957778;28;20178;-71
2021/12/10 07:02:36;;;;;;;0.40;0.40;;;1.50;95.50;;;;;;4958145;28;20794;-71
2021/12/10 07:05:03;;;;;;;0.40;0.40;;;1.40;95.50;;;;;;4957623;28;20202;-71
2021/12/10 07:07:29;;;;;;;0.30;0.30;;;1.30;95.40;;;;;;4957690;28;20185;-71
2021/12/10 07:09:55;;;;;;;0.63;0.63;;;1.10;95.50;;;;;;4957651;28;20170;-71
2021/12/10 07:12:20;;;;;;;0.40;0.40;;;0.90;95.80;;;;;;4957649;28;20542;-71
2021/12/10 07:14:47;;;;;;;0.30;0.30;;;0.90;96.20;;;;;;4957655;28;20253;-71
2021/12/10 07:17:13;;;;;;;0.30;0.30;;;1.00;96.30;;;;;;4957399;28;20201;-71
2021/12/10 07:19:40;;;;;;;0.30;0.30;;;1.00;96.20;;;;;;4957385;28;20184;-71
2021/12/10 07:22:06;;;;;;;0.30;0.30;;;1.10;96.20;;;;;;4957936;28;20253;-71
2021/12/10 07:24:31;;;;;;;0.30;0.30;;;1.30;96.10;;;;;;4955890;28;20269;-71
2021/12/10 07:26:57;;;;;;;0.30;0.30;;;1.30;95.50;;;;;;4956096;29;20177;-70
2021/12/10 07:29:23;;;;;;;0.30;0.30;;;1.20;95.40;;;;;;4957322;28;20170;-71
2021/12/10 07:31:49;;;;;;;0.30;0.30;;;1.10;95.50;;;;;;4957250;28;20595;-71
2021/12/10 07:34:15;;;;;;;0.30;0.30;;;0.90;95.70;;;;;;4957131;28;20170;-71
2021/12/10 07:36:41;;;;;;;0.37;0.37;;;0.90;96.30;;;;;;4957235;28;20457;-71
2021/12/10 07:39:08;;;;;;;0.30;0.30;;;0.70;96.80;;;;;;4957036;28;20406;-71
2021/12/10 07:41:34;;;;;;;0.30;0.30;;;0.60;97.10;;;;;;4957182;28;20220;-71
2021/12/10 07:44:00;;;;;;;0.32;0.32;;;0.70;97.50;;;;;;4957088;28;20174;-70
2021/12/10 07:46:28;;;;;;;0.40;0.40;;;0.80;97.20;;;;;;4956918;28;20721;-71
2021/12/10 07:48:55;;;;;;;0.30;0.30;;;0.80;97.30;;;;;;4956940;28;20413;-71
2021/12/10 07:51:26;;;;;;;0.30;0.30;;;0.80;97.40;;;;;;4956801;28;20212;-70
2021/12/10 07:53:54;;;;;;;0.30;0.30;;;0.80;97.10;;;;;;4956955;28;20169;-71
2021/12/10 07:56:20;;;;;;;0.30;0.30;;;0.80;97.20;;;;;;4956770;28;20197;-70
2021/12/10 07:58:47;;;;;;;0.30;0.30;;;0.60;97.60;;;;;;4956879;28;20174;-70
2021/12/10 08:01:17;;;;;;;0.30;0.30;;;0.70;97.90;;;;;;4956544;28;20170;-70
2021/12/10 08:03:44;;;;;;;0.40;0.40;;;0.50;97.90;;;;;;4956689;28;20173;-70
2021/12/10 08:06:10;;;;;;;0.40;0.40;;;0.70;98.10;;;;;;4956570;28;20205;-70
2021/12/10 08:08:35;;;;;;;0.30;0.30;;;0.70;98.10;;;;;;4956706;28;20218;-70
2021/12/10 08:11:03;;;;;;;0.40;0.40;;;0.80;98.20;;;;;;4955154;29;20263;-70
2021/12/10 08:13:29;;;;;;;0.30;0.30;;;1.00;98.00;;;;;;4955383;28;20206;-70
2021/12/10 08:15:55;;;;;;;0.30;0.30;;;1.10;97.60;;;;;;4955031;28;20249;-70
2021/12/10 08:18:21;;;;;;;0.30;0.30;;;1.20;97.40;;;;;;4956599;28;20409;-70
2021/12/10 08:20:47;;;;;;;0.30;0.30;;;1.40;97.50;;;;;;4956304;28;20252;-70
2021/12/10 08:23:12;;;;;;;0.40;0.40;;;1.40;97.20;;;;;;4956449;28;20253;-70
2021/12/10 08:25:38;;;;;;;0.30;0.30;;;1.50;97.10;;;;;;4956234;28;20714;-70
2021/12/10 08:28:05;;;;;;;0.40;0.40;;;1.50;97.10;;;;;;4956188;28;20646;-70
2021/12/10 08:30:34;;;;;;;0.40;0.40;;;1.60;96.80;;;;;;4956041;28;20552;-70
2021/12/10 08:33:00;;;;;;;0.40;0.40;;;1.70;96.60;;;;;;4956182;28;20191;-70
2021/12/10 08:35:31;;;;;;;0.30;0.30;;;1.80;96.50;;;;;;4956300;28;20230;-70
2021/12/10 08:38:00;;;;;;;0.30;0.30;;;1.70;96.30;;;;;;4955513;28;20190;-70
2021/12/10 08:40:30;;;;;;;0.30;0.30;;;1.70;96.30;;;;;;4955875;28;20171;-70
2021/12/10 08:42:57;;;;;;;0.30;0.30;;;1.70;96.40;;;;;;4956121;28;20233;-70
2021/12/10 08:45:24;;;;;;;0.40;0.40;;;1.80;96.40;;;;;;4956015;28;20213;-70
2021/12/10 08:47:51;;;;;;;0.30;0.30;;;1.70;96.20;;;;;;4955960;28;20584;-70
2021/12/10 08:50:22;;;;;;;0.30;0.30;;;1.80;96.30;;;;;;4955737;28;20549;-70
2021/12/10 08:52:57;;;;;;;0.30;0.30;;;1.80;96.20;;;;;;4955997;28;20179;-70
2021/12/10 08:55:24;;;;;;;0.30;0.30;;;1.90;96.10;;;;;;4955692;28;20224;-70
2021/12/10 08:57:49;;;;;;;0.30;0.30;;;1.90;95.80;;;;;;4955621;28;20205;-70
2021/12/10 09:00:17;;;;;;;0.40;0.40;;;1.80;95.80;;;;;;4955645;28;20252;-71
2021/12/10 09:02:43;;;;;;;0.30;0.30;;;1.80;96.00;;;;;;4955778;28;20530;-70
2021/12/10 09:05:10;;;;;;;0.30;0.30;;;1.70;95.90;;;;;;4955645;28;20252;-70
2021/12/10 09:07:38;;;;;;;0.30;0.30;;;1.90;96.20;;;;;;4955527;28;20657;-71
2021/12/10 09:10:08;;;;;;;0.30;0.30;;;1.80;96.00;;;;;;4955449;28;20187;-71
2021/12/10 09:12:35;;;;;;;0.30;0.30;;;1.90;96.60;;;;;;4955544;28;20179;-70
2021/12/10 09:15:05;;;;;;;0.30;0.30;;;1.90;96.30;;;;;;4955575;28;20247;-70
2021/12/10 09:17:32;;;;;;;0.40;0.40;;;2.00;96.20;;;;;;4955414;28;20258;-70
2021/12/10 09:20:01;;;;;;;0.32;0.32;;;2.20;96.10;;;;;;4955283;28;20195;-70
2021/12/10 09:22:27;;;;;;;0.30;0.30;;;2.10;96.00;;;;;;4955373;28;20206;-71
2021/12/10 09:24:55;;;;;;;0.38;0.38;;;2.10;95.80;;;;;;4955189;28;20199;-70
2021/12/10 09:27:22;;;;;;;0.30;0.30;;;2.00;95.90;;;;;;4955313;28;20175;-70
2021/12/10 09:29:52;;;;;;;0.40;0.40;;;2.10;95.90;;;;;;4955284;28;20188;-70
2021/12/10 09:32:20;;;;;;;0.40;0.40;;;2.20;95.80;;;;;;4955463;28;20175;-70
2021/12/10 09:34:47;;;;;;;0.40;0.40;;;2.40;95.60;;;;;;4955335;28;20675;-70
2021/12/10 09:37:14;;;;;;;0.30;0.30;;;2.50;95.30;;;;;;4955188;28;20206;-70
2021/12/10 09:39:40;;;;;;;0.30;0.30;;;2.60;95.10;;;;;;4955109;28;20179;-71
2021/12/10 09:42:07;;;;;;;0.30;0.30;;;2.70;94.80;;;;;;4955463;28;20263;-70
2021/12/10 09:44:33;;;;;;;0.30;0.30;;;2.70;94.80;;;;;;4955247;28;20206;-70
2021/12/10 09:46:59;;;;;;;0.30;0.30;;;2.70;94.90;;;;;;4955180;28;20543;-71
2021/12/10 09:49:27;;;;;;;0.40;0.40;;;2.50;94.90;;;;;;4958753;28;20176;-70
2021/12/10 09:51:59;;;;;;;0.30;0.30;;;2.40;95.00;;;;;;4959196;28;20181;-70
2021/12/10 09:54:27;;;;;;;0.40;0.40;;;2.30;95.20;;;;;;4957594;28;20677;-71
2021/12/10 09:57:04;;;;;;;0.30;0.30;;;2.20;95.40;;;;;;4958980;28;20203;-70
2021/12/10 09:59:31;;;;;;;0.30;0.30;;;2.30;95.60;;;;;;4958959;28;20672;-70
2021/12/10 10:01:59;;;;;;;0.30;0.30;;;2.30;95.50;;;;;;4958847;28;20197;-70
2021/12/10 10:04:27;;;;;;;0.30;0.30;;;2.20;95.50;;;;;;4958783;28;20598;-70
2021/12/10 10:07:04;;;;;;;0.30;0.30;;;2.20;95.60;;;;;;4958818;28;20647;-71
2021/12/10 10:09:30;;;;;;;0.30;0.30;;;2.10;95.70;;;;;;4957500;29;20213;-70
2021/12/10 10:12:00;;;;;;;0.40;0.40;;;2.00;96.10;;;;;;4957604;29;20184;-70
2021/12/10 10:14:26;;;;;;;0.30;0.30;;;2.00;96.30;;;;;;4958570;28;20481;-71
2021/12/10 10:16:52;;;;;;;0.30;0.30;;;2.00;96.40;;;;;;4958566;28;20293;-71
2021/12/10 10:19:19;;;;;;;0.30;0.30;;;2.10;96.40;;;;;;4958367;28;20718;-70
2021/12/10 10:21:51;;;;;;;0.40;0.40;;;2.20;96.40;;;;;;4958533;28;20197;-71
2021/12/10 10:24:18;;;;;;;0.30;0.30;;;2.40;96.20;;;;;;4958647;28;20234;-70
2021/12/10 10:26:54;;;;;;;0.40;0.40;;;2.50;96.00;;;;;;4958379;28;20194;-70
2021/12/10 10:29:22;;;;;;;0.30;0.30;;;2.50;95.80;;;;;;4956998;28;20210;-71
2021/12/10 10:31:53;;;;;;;0.82;0.82;;;2.60;95.70;;;;;;4958546;28;20178;-70
2021/12/10 10:34:21;;;;;;;0.40;0.40;;;2.70;95.60;;;;;;4958487;28;20184;-71
2021/12/10 10:36:47;;;;;;;0.30;0.30;;;2.80;95.50;;;;;;4958139;28;20673;-70
2021/12/10 10:39:21;;;;;;;0.40;0.40;;;2.80;95.20;;;;;;4958148;28;20182;-70
2021/12/10 10:41:52;;;;;;;0.30;0.30;;;2.80;95.20;;;;;;4958434;28;20408;-70
2021/12/10 10:44:18;;;;;;;0.30;0.30;;;2.70;95.20;;;;;;4958145;28;20171;-70
2021/12/10 10:46:45;;;;;;;0.30;0.30;;;2.80;95.40;;;;;;4956827;29;20179;-70
2021/12/10 10:49:29;;;;;;;0.30;0.30;;;2.70;95.30;;;;;;4958130;28;20188;-70
2021/12/10 10:51:56;;;;;;;0.30;0.30;;;2.70;95.40;;;;;;4956940;29;20179;-71
2021/12/10 10:54:30;;;;;;;0.30;0.30;;;2.80;95.40;;;;;;4957687;28;20217;-71
2021/12/10 10:56:56;;;;;;;0.30;0.30;;;2.90;95.60;;;;;;4957914;28;20246;-70
2021/12/10 10:59:26;;;;;;;0.30;0.30;;;2.90;95.50;;;;;;4957213;28;20172;-71
2021/12/10 11:02:00;;;;;;;0.40;0.40;;;3.00;95.50;;;;;;4958047;28;20179;-71
2021/12/10 11:04:33;;;;;;;0.30;0.30;;;3.10;95.50;;;;;;4958112;28;20171;-70
2021/12/10 11:07:20;;;;;;;0.40;0.40;;;3.00;95.10;;;;;;4958171;28;20568;-71
2021/12/10 11:09:48;;;;;;;0.30;0.30;;;3.10;95.10;;;;;;4956367;29;20179;-70
2021/12/10 11:12:20;;;;;;;0.30;0.30;;;3.00;95.00;;;;;;4957750;28;20532;-71
2021/12/10 11:14:50;;;;;;;0.30;0.30;;;3.00;95.20;;;;;;4957756;28;20207;-70
2021/12/10 11:17:21;;;;;;;0.55;0.55;;;3.10;95.30;;;;;;4957734;28;20617;-70
2021/12/10 11:20:03;;;;;;;0.40;0.40;;;3.20;95.30;;;;;;4957277;28;20239;-70
2021/12/10 11:22:32;;;;;;;0.30;0.30;;;3.20;95.00;;;;;;4957701;28;20275;-70
2021/12/10 11:25:09;;;;;;;0.40;0.40;;;3.30;95.00;;;;;;4957456;28;20570;-71
2021/12/10 11:27:39;;;;;;;0.30;0.30;;;3.30;94.90;;;;;;4957739;28;20204;-71
2021/12/10 11:30:24;;;;;;;0.30;0.30;;;3.30;94.80;;;;;;4957361;28;20234;-70
2021/12/10 11:33:03;;;;;;;0.30;0.30;;;3.30;94.60;;;;;;4956152;29;20682;-70
2021/12/10 11:35:46;;;;;;;0.40;0.40;;;3.10;94.80;;;;;;4957140;28;20250;-70
2021/12/10 11:38:28;;;;;;;0.40;0.40;;;3.20;95.10;;;;;;4957420;28;20174;-70
2021/12/10 11:40:58;;;;;;;0.30;0.30;;;3.30;95.10;;;;;;4957153;28;20177;-70
2021/12/10 11:43:53;;;;;;;0.30;0.30;;;3.30;95.10;;;;;;4957310;28;20196;-70
2021/12/10 11:49:24;;;;;;;0.30;0.30;;;3.40;95.00;;;;;;4956912;28;20232;-70
2021/12/10 11:52:04;;;;;;;0.30;0.30;;;3.40;94.90;;;;;;4957155;28;20578;-70
2021/12/10 11:54:39;;;;;;;0.30;0.30;;;3.50;95.10;;;;;;4956892;28;20228;-70
2021/12/10 11:57:13;;;;;;;0.30;0.30;;;3.60;95.10;;;;;;4957096;28;20194;-71
2021/12/10 11:59:45;;;;;;;0.30;0.30;;;3.70;95.00;;;;;;4956595;28;20707;-71
2021/12/10 12:02:18;;;;;;;0.30;0.30;;;3.60;94.70;;;;;;4957056;28;20288;-70
2021/12/10 12:04:48;;;;;;;0.30;0.30;;;3.70;94.80;;;;;;4956773;28;20204;-70
2021/12/10 12:07:19;;;;;;;0.30;0.30;;;3.80;94.80;;;;;;4956628;28;20185;-71
2021/12/10 12:09:50;;;;;;;0.40;0.40;;;3.90;94.60;;;;;;4956386;28;20660;-71
2021/12/10 12:12:20;;;;;;;0.40;0.40;;;3.80;94.50;;;;;;4955717;28;20190;-70
2021/12/10 12:14:53;;;;;;;0.40;0.40;;;3.80;94.50;;;;;;4956385;28;20192;-70
2021/12/10 12:17:49;;;;;;;0.30;0.30;;;3.90;94.60;;;;;;4956359;28;20190;-71
2021/12/10 12:20:35;;;;;;;0.40;0.40;;;3.90;94.80;;;;;;4947851;29;20242;-71
2021/12/10 12:26:23;;;;;;;0.30;0.30;;;4.00;94.50;;;;;;4956230;28;20567;-70
2021/12/10 12:28:58;;;;;;;0.40;0.40;;;4.00;94.40;;;;;;4956336;28;20230;-71
2021/12/10 12:31:27;;;;;;;0.50;0.50;;;3.90;94.50;;;;;;4956181;28;20179;-70
2021/12/10 12:33:59;;;;;;;0.30;0.30;;;3.60;95.30;;;;;;4956264;28;20188;-71
2021/12/10 12:36:30;;;;;;;1.15;1.15;;;3.50;95.80;;;;;;4956338;28;20200;-71
2021/12/10 12:38:56;;;;;;;0.40;0.40;;;3.60;96.10;;;;;;4956376;28;20265;-70
2021/12/10 12:41:29;;;;;;;0.30;0.30;;;3.70;96.60;;;;;;4955896;28;20244;-70
2021/12/10 12:44:23;;;;;;;0.40;0.40;;;3.90;96.60;;;;;;5091043;28;20517;-70
2021/12/10 12:47:02;;;;;;;0.40;0.40;;;3.90;96.40;;;;;;5071011;28;20160;-70
2021/12/10 12:49:57;;;;;;;0.30;0.30;;;4.10;96.50;;;;;;5070706;28;20164;-69
2021/12/10 12:52:45;;;;;;;0.40;0.40;;;4.20;96.20;;;;;;5070681;28;20188;-70
2021/12/10 12:55:54;;;;;;;0.50;0.50;;;4.30;96.30;;;;;;5069341;28;20233;-69
2021/12/10 12:58:38;;;;;;;0.40;0.40;;;4.30;96.20;;;;;;5068480;28;20189;-70
2021/12/10 13:01:23;;;;;;;0.30;0.30;;;4.30;96.40;;;;;;5068305;28;20154;-69
2021/12/10 13:04:08;;;;;;;0.30;0.30;;;4.30;96.60;;;;;;5069958;28;20208;-70
2021/12/10 13:06:34;;;;;;;0.40;0.40;;;4.40;96.80;;;;;;5070407;28;20200;-69
2021/12/10 13:09:08;;;;;;;0.30;0.30;;;4.30;96.70;;;;;;5070589;28;20215;-69
2021/12/10 13:12:00;;;;;;;0.40;0.40;;;4.10;97.20;;;;;;5070354;28;20181;-69
2021/12/10 13:14:34;;;;;;;0.40;0.40;;;4.20;97.30;;;;;;5070223;28;20173;-69
2021/12/10 13:17:11;;;;;;;0.40;0.40;;;4.20;97.70;;;;;;5070319;28;20154;-69
2021/12/10 13:19:37;;;;;;;0.40;0.40;;;4.30;97.70;;;;;;5070195;28;20186;-69
2021/12/10 13:22:19;;;;;;;0.40;0.40;;;4.50;97.70;;;;;;5069991;28;20279;-69
2021/12/10 13:24:48;;;;;;;0.30;0.30;;;4.60;97.40;;;;;;5070086;28;20238;-69